.
WxDataArchive / Data Records for 2016-02-23
2016-02-22 February 2016 2016-02-24

Data Records for Tuesday, 23 February 2016

Time	Temp	Chill	HIndex	Humid	Dewpt	 Wind 	HiWind	WindDir	Rain 	Barom
-----	----	-----	------	-----	-----	------	------	-------	-----	-----
00:00	27.5	27.5	27.5	80	22.2	1	4	90	0.00	30.148 
00:05	27.5	27.5	27.5	80	22.2	0	3	90	0.00	30.148 
00:10	27.3	27.3	27.3	79	21.7	0	4	90	0.00	30.148 
00:15	27.3	27.3	27.3	79	21.7	1	3	90	0.00	30.142 
00:20	27.2	27.2	27.2	79	21.6	0	3	112	0.00	30.142 
00:25	27.0	27.0	27.0	79	21.4	0	2	112	0.00	30.142 
00:30	27.0	27.0	27.0	79	21.4	0	1	112	0.00	30.137 
00:35	26.9	26.9	26.9	79	21.3	0	0	---	0.00	30.137 
00:40	26.9	26.9	26.9	79	21.3	0	1	90	0.00	30.137 
00:45	26.7	26.7	26.7	80	21.4	0	1	90	0.00	30.134 
00:50	26.6	26.6	26.6	80	21.3	0	1	90	0.00	30.134 
00:55	26.6	26.6	26.6	80	21.3	0	1	90	0.00	30.134 
01:00	26.4	26.4	26.4	81	21.4	0	2	90	0.00	30.132 
01:05	26.4	26.4	26.4	81	21.4	0	1	90	0.00	30.132 
01:10	26.4	26.4	26.4	81	21.4	0	1	112	0.00	30.132 
01:15	26.3	26.3	26.3	81	21.3	0	1	90	0.00	30.132 
01:20	26.3	26.3	26.3	81	21.3	0	1	90	0.00	30.132 
01:25	26.3	26.3	26.3	81	21.3	0	2	90	0.00	30.132 
01:30	26.3	26.3	26.3	80	21.0	0	2	90	0.00	30.132 
01:35	26.3	26.3	26.3	80	21.0	0	1	90	0.00	30.132 
01:40	26.1	26.1	26.1	81	21.1	0	1	90	0.00	30.132 
01:45	26.1	26.1	26.1	80	20.8	0	0	---	0.00	30.132 
01:50	26.1	26.1	26.1	80	20.8	0	0	---	0.00	30.132 
01:55	26.0	26.0	26.0	80	20.7	0	1	90	0.00	30.132 
02:00	26.0	26.0	26.0	81	21.0	0	1	90	0.00	30.133 
02:05	26.0	26.0	26.0	81	21.0	0	1	90	0.00	30.133 
02:10	26.0	26.0	26.0	81	21.0	0	0	---	0.00	30.133 
02:15	26.0	26.0	26.0	81	21.0	0	1	90	0.00	30.131 
02:20	25.8	25.8	25.8	81	20.8	0	1	90	0.00	30.131 
02:25	25.8	25.8	25.8	81	20.8	0	2	112	0.00	30.131 
02:30	25.8	25.8	25.8	81	20.8	0	1	112	0.00	30.123 
02:35	25.8	25.8	25.8	81	20.8	0	1	112	0.00	30.123 
02:40	25.8	25.8	25.8	81	20.8	0	1	112	0.00	30.123 
02:45	25.7	25.7	25.7	81	20.7	0	2	112	0.00	30.118 
02:50	25.7	25.7	25.7	81	20.7	0	2	112	0.00	30.118 
02:55	25.7	25.7	25.7	81	20.7	0	2	112	0.00	30.118 
03:00	25.7	25.7	25.7	81	20.7	0	1	112	0.00	30.117 
03:05	25.7	25.7	25.7	81	20.7	0	1	112	0.00	30.117 
03:10	25.6	25.6	25.6	80	20.3	0	2	112	0.00	30.117 
03:15	25.6	25.6	25.6	80	20.3	0	1	112	0.00	30.115 
03:20	25.6	25.6	25.6	80	20.3	0	2	112	0.00	30.115 
03:25	25.6	25.6	25.6	80	20.3	0	2	112	0.00	30.115 
03:30	25.6	25.6	25.6	80	20.3	0	1	112	0.00	30.111 
03:35	25.4	25.4	25.4	80	20.1	0	1	112	0.00	30.111 
03:40	25.4	25.4	25.4	80	20.1	0	2	112	0.00	30.111 
03:45	25.4	25.4	25.4	80	20.1	0	1	90	0.00	30.109 
03:50	25.4	25.4	25.4	81	20.4	0	1	112	0.00	30.109 
03:55	25.4	25.4	25.4	81	20.4	0	2	112	0.00	30.109 
04:00	25.6	25.6	25.6	81	20.6	0	1	112	0.00	30.105 
04:05	25.6	25.6	25.6	81	20.6	0	1	112	0.00	30.105 
04:10	25.6	25.6	25.6	81	20.6	0	3	112	0.00	30.105 
04:15	25.6	25.6	25.6	81	20.6	0	1	112	0.00	30.102 
04:20	25.6	25.6	25.6	81	20.6	0	2	112	0.00	30.102 
04:25	25.7	25.7	25.7	81	20.7	0	4	112	0.00	30.102 
04:30	25.7	25.7	25.7	81	20.7	0	2	90	0.00	30.102 
04:35	25.7	25.7	25.7	81	20.7	0	3	90	0.00	30.102 
04:40	25.7	25.7	25.7	81	20.7	0	3	90	0.00	30.102 
04:45	25.7	25.7	25.7	81	20.7	0	2	90	0.00	30.100 
04:50	25.7	25.7	25.7	82	21.0	0	3	90	0.00	30.100 
04:55	25.8	25.8	25.8	82	21.1	1	3	90	0.00	30.100 
05:00	25.8	25.8	25.8	82	21.1	1	4	90	0.00	30.100 
05:05	25.8	25.8	25.8	82	21.1	0	2	68	0.00	30.100 
05:10	25.8	25.8	25.8	82	21.1	0	3	68	0.00	30.100 
05:15	26.0	26.0	26.0	82	21.3	0	1	90	0.00	30.100 
05:20	26.0	26.0	26.0	82	21.3	0	3	90	0.00	30.100 
05:25	26.0	26.0	26.0	82	21.3	0	3	90	0.00	30.100 
05:30	26.0	26.0	26.0	82	21.3	0	1	68	0.00	30.101 
05:35	26.0	26.0	26.0	82	21.3	0	2	68	0.00	30.101 
05:40	26.0	26.0	26.0	82	21.3	0	1	68	0.00	30.101 
05:45	26.0	26.0	26.0	82	21.3	1	3	68	0.00	30.106 
05:50	26.0	26.0	26.0	82	21.3	1	4	68	0.00	30.106 
05:55	26.0	26.0	26.0	82	21.3	1	4	90	0.00	30.106 
06:00	26.1	26.1	26.1	82	21.4	1	3	90	0.00	30.105 
06:05	26.1	26.1	26.1	82	21.4	1	7	90	0.00	30.105 
06:10	26.1	26.1	26.1	82	21.4	1	4	45	0.00	30.105 
06:15	26.1	26.1	26.1	82	21.4	1	4	90	0.00	30.113 
06:20	26.3	26.3	26.3	82	21.6	0	3	90	0.00	30.113 
06:25	26.1	26.1	26.1	82	21.4	0	2	90	0.00	30.113 
06:30	26.1	26.1	26.1	82	21.4	1	5	90	0.00	30.106 
06:35	26.1	26.1	26.1	83	21.7	1	4	112	0.00	30.106 
06:40	26.1	26.1	26.1	83	21.7	0	4	112	0.00	30.106 
06:45	26.1	26.1	26.1	83	21.7	1	4	112	0.00	30.102 
06:50	26.1	26.1	26.1	83	21.7	0	1	45	0.00	30.102 
06:55	26.1	26.1	26.1	83	21.7	1	4	90	0.00	30.102 
07:00	26.1	26.1	26.1	83	21.7	1	3	112	0.00	30.092 
07:05	26.1	26.1	26.1	84	21.9	1	4	90	0.00	30.092 
07:10	26.1	26.1	26.1	84	21.9	1	4	45	0.00	30.092 
07:15	26.3	26.3	26.3	84	22.1	1	5	112	0.00	30.101 
07:20	26.3	26.3	26.3	84	22.1	1	4	90	0.00	30.101 
07:25	26.4	26.4	26.4	84	22.2	1	3	90	0.00	30.101 
07:30	26.4	26.4	26.4	84	22.2	1	3	68	0.00	30.103 
07:35	26.4	26.4	26.4	84	22.2	1	4	90	0.00	30.103 
07:40	26.4	26.4	26.4	84	22.2	1	6	90	0.00	30.103 
07:45	26.4	26.4	26.4	84	22.2	2	5	90	0.00	30.097 
07:50	26.6	26.6	26.6	84	22.4	1	5	112	0.00	30.097 
07:55	26.6	26.6	26.6	84	22.4	2	5	90	0.00	30.097 
08:00	26.7	26.7	26.7	84	22.5	0	2	90	0.00	30.108 
08:05	26.9	26.9	26.9	84	22.7	1	5	90	0.00	30.108 
08:10	27.2	27.2	27.2	84	23.0	0	3	112	0.00	30.108 
08:15	27.3	27.3	27.3	84	23.1	0	3	22	0.00	30.125 
08:20	27.6	27.6	27.6	84	23.4	1	5	90	0.00	30.125 
08:25	27.9	27.9	27.9	83	23.4	1	3	22	0.00	30.125 
08:30	28.4	28.4	28.4	83	23.9	1	5	112	0.00	30.138 
08:35	28.7	28.7	28.7	83	24.2	1	4	0	0.00	30.138 
08:40	29.1	29.1	29.1	82	24.3	1	5	90	0.00	30.138 
08:45	29.5	29.5	29.5	81	24.4	1	5	90	0.00	30.143 
08:50	29.8	29.8	29.8	80	24.4	2	7	22	0.00	30.143 
08:55	30.3	30.3	30.3	80	24.9	3	6	112	0.00	30.143 
09:00	30.4	30.4	30.4	79	24.7	3	8	112	0.00	30.142 
09:05	30.6	30.6	30.6	78	24.6	3	9	90	0.00	30.142 
09:10	30.9	30.9	30.9	78	24.9	2	7	112	0.00	30.142 
09:15	31.0	31.0	31.0	77	24.7	2	7	22	0.00	30.140 
09:20	31.3	31.3	31.3	77	24.9	3	7	112	0.00	30.140 
09:25	31.5	31.5	31.5	77	25.1	1	5	22	0.00	30.140 
09:30	32.1	32.1	32.1	76	25.4	2	6	112	0.00	30.142 
09:35	32.5	32.5	32.5	75	25.5	3	9	90	0.00	30.142 
09:40	32.8	32.8	32.8	74	25.4	3	10	112	0.00	30.142 
09:45	33.1	33.1	33.1	73	25.4	3	11	112	0.00	30.134 
09:50	33.5	33.5	33.5	73	25.8	2	6	90	0.00	30.134 
09:55	34.0	34.0	34.0	70	25.3	3	10	112	0.00	30.134 
10:00	34.3	34.3	34.3	70	25.5	3	9	112	0.00	30.130 
10:05	34.6	30.1	34.6	69	25.5	5	13	112	0.00	30.130 
10:10	34.7	31.2	34.7	69	25.6	4	10	90	0.00	30.130 
10:15	34.7	30.2	34.7	68	25.2	5	12	90	0.00	30.125 
10:20	35.0	31.5	35.0	67	25.2	4	10	90	0.00	30.125 
10:25	35.2	30.8	35.2	67	25.4	5	11	112	0.00	30.125 
10:30	35.5	32.1	35.5	66	25.3	4	11	112	0.00	30.124 
10:35	35.9	35.9	35.9	66	25.7	3	7	90	0.00	30.124 
10:40	36.3	32.1	36.3	65	25.7	5	11	112	0.00	30.124 
10:45	36.6	33.4	36.6	64	25.6	4	10	112	0.00	30.126 
10:50	36.9	33.7	36.9	63	25.5	4	14	112	0.00	30.126 
10:55	37.2	33.2	37.2	62	25.4	5	12	112	0.00	30.126 
11:00	37.6	37.6	37.6	62	25.8	3	9	90	0.00	30.122 
11:05	38.0	38.0	38.0	60	25.4	3	9	112	0.00	30.122 
11:10	38.5	35.6	38.5	59	25.4	4	12	90	0.00	30.122 
11:15	38.8	35.9	38.8	58	25.3	4	11	112	0.00	30.118 
11:20	38.9	35.2	38.9	58	25.4	5	12	112	0.00	30.118 
11:25	39.1	36.3	39.1	58	25.6	4	11	90	0.00	30.118 
11:30	39.3	36.5	39.3	56	24.9	4	10	90	0.00	30.115 
11:35	39.5	39.5	39.5	55	24.7	3	12	112	0.00	30.115 
11:40	39.8	37.1	39.8	55	25.0	4	10	112	0.00	30.115 
11:45	40.1	37.4	40.1	54	24.8	4	9	112	0.00	30.103 
11:50	40.3	36.1	40.3	51	23.6	6	16	90	0.00	30.103 
11:55	40.3	36.1	40.3	52	24.1	6	15	112	0.00	30.103 
12:00	40.5	40.5	40.5	52	24.3	3	11	112	0.00	30.092 
12:05	40.5	37.9	40.5	53	24.7	4	12	90	0.00	30.092 
12:10	40.8	38.2	40.8	51	24.1	4	13	112	0.00	30.092 
12:15	40.8	38.2	40.8	53	25.0	4	10	90	0.00	30.090 
12:20	40.8	37.4	40.8	52	24.6	5	12	112	0.00	30.090 
12:25	40.8	36.1	40.8	51	24.1	7	16	112	0.00	30.090 
12:30	40.9	38.4	40.9	52	24.6	4	12	90	0.00	30.086 
12:35	41.5	39.1	41.5	52	25.2	4	10	90	0.00	30.086 
12:40	41.8	39.4	41.8	51	25.0	4	12	90	0.00	30.086 
12:45	41.9	38.7	41.9	51	25.1	5	13	112	0.00	30.068 
12:50	41.9	38.0	41.9	50	24.6	6	11	112	0.00	30.068 
12:55	42.2	39.9	42.2	50	24.9	4	11	112	0.00	30.068 
13:00	42.5	42.5	42.5	52	26.1	2	7	45	0.00	30.065 
13:05	42.6	42.6	42.6	50	25.3	2	7	68	0.00	30.065 
13:10	42.8	42.8	42.8	51	25.9	3	10	90	0.00	30.065 
13:15	42.8	39.8	42.8	50	25.5	5	12	112	0.00	30.063 
13:20	43.1	43.1	43.1	48	24.8	3	11	45	0.00	30.063 
13:25	43.5	41.4	43.5	46	24.1	4	12	112	0.00	30.063 
13:30	43.5	41.4	43.5	46	24.1	4	13	90	0.00	30.052 
13:35	43.6	41.5	43.6	46	24.2	4	12	112	0.00	30.052 
13:40	43.6	43.6	43.6	46	24.2	3	10	22	0.00	30.052 
13:45	43.9	43.9	43.9	47	25.0	3	12	90	0.00	30.051 
13:50	44.2	42.2	44.2	45	24.2	4	12	90	0.00	30.051 
13:55	44.2	44.2	44.2	45	24.2	3	11	112	0.00	30.051 
14:00	44.3	44.3	44.3	44	23.8	3	11	112	0.00	30.053 
14:05	44.3	44.3	44.3	43	23.2	3	11	112	0.00	30.053 
14:10	44.3	44.3	44.3	43	23.2	3	13	112	0.00	30.053 
14:15	44.5	44.5	44.5	43	23.4	2	7	45	0.00	30.042 
14:20	44.6	42.6	44.6	42	22.9	4	13	112	0.00	30.042 
14:25	44.8	42.9	44.8	42	23.1	4	10	112	0.00	30.042 
14:30	44.9	44.9	44.9	43	23.8	3	10	112	0.00	30.034 
14:35	45.1	45.1	45.1	43	24.0	1	6	112	0.00	30.034 
14:40	44.9	44.9	44.9	43	23.8	3	13	90	0.00	30.034 
14:45	44.8	44.8	44.8	45	24.8	1	6	90	0.00	30.029 
14:50	44.8	42.9	44.8	44	24.2	4	9	112	0.00	30.029 
14:55	44.6	42.6	44.6	42	22.9	4	10	90	0.00	30.029 
15:00	44.8	44.8	44.8	44	24.2	3	10	45	0.00	30.018 
15:05	44.9	44.9	44.9	43	23.8	3	14	68	0.00	30.018 
15:10	44.8	42.9	44.8	43	23.7	4	13	112	0.00	30.018 
15:15	44.8	44.8	44.8	42	23.1	3	10	45	0.00	30.015 
15:20	44.8	41.5	44.8	42	23.1	6	13	112	0.00	30.015 
15:25	44.6	44.6	44.6	42	22.9	3	14	45	0.00	30.015 
15:30	44.5	44.5	44.5	43	23.4	3	7	68	0.00	30.016 
15:35	44.3	42.3	44.3	43	23.2	4	13	112	0.00	30.016 
15:40	44.2	42.2	44.2	43	23.1	4	13	112	0.00	30.016 
15:45	44.2	41.4	44.2	43	23.1	5	13	112	0.00	30.008 
15:50	44.2	42.2	44.2	44	23.7	4	16	90	0.00	30.008 
15:55	43.9	41.1	43.9	44	23.4	5	14	112	0.00	30.008 
16:00	43.8	43.8	43.8	45	23.9	3	9	45	0.00	30.003 
16:05	43.8	43.8	43.8	45	23.9	3	10	90	0.00	30.003 
16:10	43.6	41.5	43.6	45	23.7	4	11	22	0.00	30.003 
16:15	43.5	40.6	43.5	45	23.6	5	11	112	0.00	30.003 
16:20	43.5	43.5	43.5	45	23.6	1	9	112	0.00	30.003 
16:25	43.5	40.6	43.5	44	23.1	5	13	112	0.00	30.003 
16:30	43.2	43.2	43.2	45	23.3	3	13	68	0.00	30.003 
16:35	43.1	40.9	43.1	45	23.2	4	12	22	0.00	30.003 
16:40	42.9	42.9	42.9	45	23.0	2	10	112	0.00	30.003 
16:45	42.8	42.8	42.8	46	23.5	2	10	45	0.00	29.999 
16:50	42.8	42.8	42.8	45	22.9	3	9	22	0.00	29.999 
16:55	42.6	42.6	42.6	45	22.8	3	9	68	0.00	29.999 
17:00	42.5	42.5	42.5	44	22.1	3	9	112	0.00	29.992 
17:05	42.2	42.2	42.2	44	21.9	3	7	90	0.00	29.992 
17:10	42.1	42.1	42.1	45	22.3	3	9	112	0.00	29.992 
17:15	41.8	41.8	41.8	44	21.5	3	10	45	0.00	29.997 
17:20	41.5	41.5	41.5	45	21.8	3	10	112	0.00	29.997 
17:25	41.2	38.7	41.2	46	22.0	4	11	90	0.00	29.997 
17:30	41.1	41.1	41.1	46	21.9	2	6	90	0.00	30.006 
17:35	40.8	40.8	40.8	46	21.6	2	11	90	0.00	30.006 
17:40	40.6	40.6	40.6	46	21.5	1	6	112	0.00	30.006 
17:45	40.5	40.5	40.5	47	21.9	1	6	90	0.00	30.003 
17:50	40.2	40.2	40.2	48	22.1	1	5	90	0.00	30.003 
17:55	40.1	40.1	40.1	48	22.0	1	5	68	0.00	30.003 
18:00	39.8	39.8	39.8	48	21.7	1	4	68	0.00	29.995 
18:05	39.6	39.6	39.6	48	21.5	2	5	0	0.00	29.995 
18:10	39.5	39.5	39.5	49	21.9	1	7	90	0.00	29.995 
18:15	39.2	39.2	39.2	49	21.7	1	4	112	0.00	30.001 
18:20	39.1	39.1	39.1	50	22.0	2	5	90	0.00	30.001 
18:25	38.8	38.8	38.8	50	21.8	2	9	112	0.00	30.001 
18:30	38.6	38.6	38.6	51	22.1	1	6	135	0.00	30.007 
18:35	38.3	38.3	38.3	52	22.2	2	5	112	0.00	30.007 
18:40	38.2	38.2	38.2	52	22.1	1	5	112	0.00	30.007 
18:45	38.0	38.0	38.0	52	22.0	1	5	112	0.00	30.012 
18:50	37.9	37.9	37.9	52	21.9	1	6	112	0.00	30.012 
18:55	37.8	37.8	37.8	52	21.8	2	6	90	0.00	30.012 
19:00	37.5	37.5	37.5	53	21.9	1	5	90	0.00	30.008 
19:05	37.3	37.3	37.3	53	21.8	2	5	90	0.00	30.008 
19:10	37.2	37.2	37.2	53	21.7	1	4	90	0.00	30.008 
19:15	37.0	37.0	37.0	54	21.9	1	4	90	0.00	29.997 
19:20	36.9	36.9	36.9	54	21.8	0	2	45	0.00	29.997 
19:25	36.6	36.6	36.6	55	22.0	1	4	45	0.00	29.997 
19:30	36.3	36.3	36.3	56	22.1	1	3	90	0.00	29.992 
19:35	36.2	36.2	36.2	57	22.5	1	6	90	0.00	29.992 
19:40	36.0	36.0	36.0	57	22.3	1	3	68	0.00	29.992 
19:45	36.0	36.0	36.0	57	22.3	2	6	22	0.00	29.990 
19:50	36.0	36.0	36.0	57	22.3	1	5	22	0.00	29.990 
19:55	36.0	36.0	36.0	57	22.3	2	7	90	0.00	29.990 
20:00	36.0	36.0	36.0	57	22.3	3	11	112	0.00	29.981 
20:05	36.0	36.0	36.0	58	22.7	2	5	90	0.00	29.981 
20:10	35.9	35.9	35.9	58	22.6	2	8	112	0.00	29.981 
20:15	35.8	31.5	35.8	58	22.5	5	13	112	0.00	29.980 
20:20	35.6	35.6	35.6	58	22.3	3	14	112	0.00	29.980 
20:25	35.5	35.5	35.5	59	22.6	2	7	90	0.00	29.980 
20:30	35.5	35.5	35.5	59	22.6	3	9	112	0.00	29.991 
20:35	35.3	35.3	35.3	60	22.8	2	6	112	0.00	29.991 
20:40	35.0	35.0	35.0	60	22.5	0	3	90	0.00	29.991 
20:45	34.9	34.9	34.9	61	22.8	1	5	90	0.00	29.993 
20:50	34.7	34.7	34.7	61	22.6	2	10	90	0.00	29.993 
20:55	34.7	34.7	34.7	61	22.6	2	7	90	0.00	29.993 
21:00	34.6	34.6	34.6	61	22.6	2	5	112	0.00	29.995 
21:05	34.4	34.4	34.4	61	22.4	1	9	112	0.00	29.995 
21:10	34.3	34.3	34.3	61	22.3	1	7	45	0.00	29.995 
21:15	34.1	34.1	34.1	62	22.5	1	6	112	0.00	29.974 
21:20	34.0	34.0	34.0	62	22.4	1	7	68	0.00	29.974 
21:25	33.8	33.8	33.8	62	22.2	1	6	90	0.00	29.974 
21:30	33.8	33.8	33.8	62	22.2	1	7	112	0.00	29.958 
21:35	33.7	33.7	33.7	62	22.1	1	7	90	0.00	29.958 
21:40	33.5	33.5	33.5	62	21.9	1	5	68	0.00	29.958 
21:45	33.5	33.5	33.5	63	22.3	1	6	112	0.00	29.960 
21:50	33.4	33.4	33.4	63	22.2	1	4	90	0.00	29.960 
21:55	33.2	33.2	33.2	63	22.0	3	8	112	0.00	29.960 
22:00	33.1	33.1	33.1	63	21.9	0	5	90	0.00	29.960 
22:05	33.1	33.1	33.1	63	21.9	1	5	22	0.00	29.960 
22:10	32.9	32.9	32.9	63	21.7	1	5	90	0.00	29.960 
22:15	32.9	32.9	32.9	64	22.1	1	4	45	0.00	29.937 
22:20	33.1	33.1	33.1	64	22.3	1	4	90	0.00	29.937 
22:25	33.1	33.1	33.1	64	22.3	1	6	45	0.00	29.937 
22:30	33.2	33.2	33.2	64	22.4	2	10	112	0.00	29.945 
22:35	33.2	33.2	33.2	65	22.7	1	5	112	0.00	29.945 
22:40	33.2	33.2	33.2	65	22.7	2	5	45	0.00	29.945 
22:45	33.2	33.2	33.2	65	22.7	2	5	68	0.00	29.933 
22:50	33.4	33.4	33.4	65	22.9	1	6	22	0.00	29.933 
22:55	33.4	33.4	33.4	66	23.3	2	9	68	0.00	29.933 
23:00	33.4	33.4	33.4	66	23.3	2	5	112	0.00	29.922 
23:05	33.4	33.4	33.4	66	23.3	2	12	68	0.00	29.922 
23:10	33.4	33.4	33.4	67	23.6	2	9	90	0.00	29.922 
23:15	33.4	33.4	33.4	67	23.6	1	6	112	0.00	29.919 
23:20	33.4	33.4	33.4	68	24.0	2	6	22	0.00	29.919 
23:25	33.4	33.4	33.4	68	24.0	2	7	68	0.00	29.919 
23:30	33.4	33.4	33.4	68	24.0	2	9	90	0.00	29.905 
23:35	33.4	33.4	33.4	68	24.0	2	7	90	0.00	29.905 
23:40	33.4	33.4	33.4	69	24.3	1	6	112	0.00	29.905 
23:45	33.4	33.4	33.4	69	24.3	2	12	68	0.00	29.889 
23:50	33.4	33.4	33.4	69	24.3	2	11	22	0.00	29.889 
23:55	33.4	33.4	33.4	70	24.7	2	9	45	0.00	29.889 

CoCoRaHS
IN-AL-39
A2 Web Hosting
Creative Commons License
GoDaddy
search engine by freefind advanced

loaded 2018-11-14 00:22:27 • last modified 2010-11-18 10:43:29
Privacy PolicyDisclaimer
• wx.awcolley.com is powered by PmWiki v.2002016 •
• all content (unless otherwise noted) © 2018 A W Colley